Commit Graph
4647 Commits
Author SHA1 Message Date
MihailRis ecf3b94d53 add hud.hand_controller 2025-07-27 22:30:30 +03:00
MihailRis 93c922be99 update doc/*/scripting.md 2025-07-27 22:21:14 +03:00
MihailRis b5a2f2ae71 add gfx.skeletons library docs 2025-07-27 22:18:28 +03:00
MihailRis b991ca3c9a add gfx.skeletons library 2025-07-27 21:38:09 +03:00
MihailRis 6f11741310 move hand item control to lua 2025-07-27 19:20:30 +03:00
MihailRis 567eec88c8 add named skeletons support 2025-07-27 16:04:25 +03:00
MihailRis 5632c9ccfe add hand skeleton 2025-07-27 02:45:25 +03:00
MihailRis d06a208188 cleanup __skeleton library 2025-07-26 23:53:27 +03:00
MihailRis 61e85ad575 Merge branch 'main' into dev 2025-07-26 23:10:16 +03:00
MihailRis 635b66a8c6 fix debug.getinfo 2025-07-26 22:50:35 +03:00
MihailRis 844eb054af return debug.getinfo function 2025-07-26 19:12:05 +03:00
MihailRisandGitHub bde80af0d0 Merge pull request #568 from GHOST3118/improve-items
Improve items
2025-07-26 18:43:37 +03:00
MihailRis f90e1b3321 begin the 0.29 development 2025-07-26 18:43:00 +03:00
MihailRisandGitHub 00c7c986bb Merge pull request #569 from MihailRis/fix-resume-dead-coroutine
fix "cannot resume dead coroutine"
2025-07-26 18:32:00 +03:00
MihailRis 47c97ccd46 fix 'resume dead coroutine' for client 2025-07-26 18:08:10 +03:00
GHOST11111100 0caed92baa added docs and fixed desc loading from item def 2025-07-26 17:58:57 +03:00
GHOST11111100 59d706323a added item.description() to itemlib, and update docs 2025-07-26 17:21:00 +03:00
MihailRis aa3d1bb2e3 cleanup 2025-07-26 17:16:37 +03:00
MihailRis 1bd3463488 fix "cannot resume dead coroutine" for servers 2025-07-26 17:08:45 +03:00
GHOST11111100 b4d41a59e4 added docs 2025-07-26 16:59:58 +03:00
GHOST11111100 21364af7a3 added description to item 2025-07-26 16:49:39 +03:00
GHOST11111100 b4b49ccd83 added custom caption to items. fixed glyph render. 2025-07-26 16:19:00 +03:00
MihailRisandGitHub 8489c36df7 Merge pull request #564 from MihailRis/small-optimizations
optimize shadow maps generation a bit
2025-07-25 22:44:17 +03:00
MihailRis 7cf073f079 fix: skybox is not visible behind translucent blocks 2025-07-25 22:28:28 +03:00
MihailRis 705e398bc3 improve u_gamma support & update default dense-render-distance value 2025-07-25 21:21:18 +03:00
MihailRis 6d88b7c3d1 add dense-render-distance setting 2025-07-25 12:45:28 +03:00
MihailRis fbde46afa7 feat: distance-based dense render optimization 2025-07-25 00:54:54 +03:00
MihailRis 799d712447 update ContentGfxCache 2025-07-24 22:51:53 +03:00
MihailRis 4a6ccf4847 feat: multiple index buffers per mesh support 2025-07-24 21:40:00 +03:00
MihailRisandGitHub 3176abed9e Merge pull request #566 from andreyplus/fixes
Add a warning if the directory does not exist or if it is a file
2025-07-23 12:41:55 +03:00
MihailRisandGitHub a2b89e635f Merge pull request #565 from andreyplus/new-world-placeholder
Add auto-increment placeholder for the new worlds
2025-07-23 12:20:33 +03:00
Andrey Lebedev e184404ff8 warning if open directory does not exist 2025-07-23 12:17:59 +03:00
Andrey Lebedev f8290b1e87 auto-increment placeholder for the new worlds 2025-07-23 10:31:20 +03:00
MihailRis 6debc92ae5 optimize shadow maps generation a bit 2025-07-22 01:41:52 +03:00
MihailRisandGitHub e24d1bdb9c Merge pull request #563 from MihailRis/fix-docs
Fix docs
2025-07-22 00:54:56 +03:00
MihailRis 0627358c0e fix gfx.posteffects docs 2025-07-22 00:39:40 +03:00
MihailRis 5ea90dec42 Merge branch 'main' of https://github.com/MihailRis/voxelcore 2025-07-22 00:22:41 +03:00
MihailRis c699169e77 fix inventory docs 2025-07-22 00:22:37 +03:00
MihailRisandGitHub 833459bb64 Merge pull request #562 from MihailRis/fixes
Fixes
2025-07-22 00:01:35 +03:00
MihailRis 82f777229e fix: sampler arrays inbdexed with non-constant / uniform-based expressions are forbidden 2025-07-21 23:36:40 +03:00
MihailRis 0a79f672f3 fix drop component 2025-07-21 23:13:15 +03:00
MihailRis 60bc30f01f fix 2025-07-21 22:04:57 +03:00
MihailRis af2dcbbc3f fix initial weather intensity 2025-07-21 21:52:57 +03:00
MihailRis 6d019fbc8d temporary fix: precipitation brightness compensation 2025-07-21 21:51:49 +03:00
MihailRis 5f02326a80 hide unsafe debug.* functions 2025-07-21 21:40:47 +03:00
MihailRisandGitHub 1733c37922 Merge pull request #561 from MihailRis/macos-fix
fix #452
2025-07-21 21:25:28 +03:00
MihailRis 4f549999f5 temporary fix 2025-07-21 19:30:30 +03:00
MihailRisandGitHub 98296d91ee Merge pull request #560 from clasher113/main
bug fix
2025-07-20 19:33:30 +03:00
clasher113 59f1e5ddc7 drop: count fix 2025-07-20 12:19:34 +03:00
clasher113 14aa5df586 BasicParser::parseNumber() out of range fix 2025-07-20 12:14:13 +03:00